createdAt,value
2023-02-05T00:00:26.018Z,33.00
2023-02-05T00:02:54.088Z,33.92
2023-02-05T00:05:21.993Z,34.63
2023-02-05T00:07:50.258Z,34.03
2023-02-05T00:10:20.002Z,33.53
2023-02-05T00:12:47.906Z,32.65
2023-02-05T00:15:16.365Z,33.28
2023-02-05T00:17:44.518Z,32.63
2023-02-05T00:20:13.081Z,32.58
2023-02-05T00:22:41.121Z,31.20
2023-02-05T00:25:09.566Z,31.33
2023-02-05T00:27:38.967Z,30.17
2023-02-05T00:30:08.118Z,30.10
2023-02-05T00:32:37.206Z,30.10
2023-02-05T00:35:05.408Z,28.77
2023-02-05T00:37:33.873Z,28.58
2023-02-05T00:40:01.937Z,28.30
2023-02-05T00:42:29.883Z,26.85
2023-02-05T00:44:59.347Z,26.50
2023-02-05T00:47:27.366Z,26.05
2023-02-05T00:49:55.431Z,25.98
2023-02-05T00:52:23.500Z,25.65
2023-02-05T00:54:53.505Z,25.50
2023-02-05T00:57:24.724Z,25.50
2023-02-05T00:59:53.191Z,25.10
2023-02-05T01:02:24.326Z,26.08
2023-02-05T01:04:52.906Z,25.48
2023-02-05T01:07:21.365Z,25.50
2023-02-05T01:09:49.866Z,25.80
2023-02-05T01:12:18.120Z,25.80
2023-02-05T01:14:46.226Z,25.30
2023-02-05T01:17:14.439Z,25.52
2023-02-05T01:19:44.058Z,25.77
2023-02-05T01:22:12.324Z,25.63
2023-02-05T01:24:40.314Z,25.73
2023-02-05T01:27:08.498Z,25.60
2023-02-05T01:29:36.652Z,25.38
2023-02-05T01:32:04.703Z,25.38
2023-02-05T01:34:32.917Z,25.98
2023-02-05T01:37:02.866Z,25.55
2023-02-05T01:39:30.862Z,26.40
2023-02-05T01:41:59.090Z,25.35
2023-02-05T01:44:29.059Z,24.98
2023-02-05T01:46:58.587Z,25.60
2023-02-05T01:49:30.203Z,25.60
2023-02-05T01:52:02.547Z,25.90
2023-02-05T01:54:33.914Z,25.77
2023-02-05T01:57:08.063Z,26.08
2023-02-05T01:59:38.574Z,26.40
2023-02-05T02:02:07.810Z,25.45
2023-02-05T02:04:39.500Z,25.45
2023-02-05T02:07:09.840Z,26.52
2023-02-05T02:09:41.158Z,25.88
2023-02-05T02:12:10.637Z,26.20
2023-02-05T02:14:40.730Z,26.80
2023-02-05T02:17:10.596Z,26.40
2023-02-05T02:19:45.193Z,26.50
2023-02-05T02:22:39.368Z,26.95
2023-02-05T02:25:44.052Z,28.00
2023-02-05T02:28:18.669Z,26.63
2023-02-05T02:30:53.915Z,26.77
2023-02-05T02:33:32.860Z,27.15
2023-02-05T02:36:04.370Z,26.48
2023-02-05T02:38:34.868Z,26.33
2023-02-05T02:41:07.585Z,27.48
2023-02-05T02:43:45.985Z,28.27
2023-02-05T02:46:20.743Z,28.02
2023-02-05T02:48:52.246Z,27.10
2023-02-05T02:51:22.608Z,28.00
2023-02-05T02:53:57.090Z,28.58
2023-02-05T02:56:29.367Z,28.80
2023-02-05T02:59:06.291Z,28.60
2023-02-05T03:01:36.747Z,29.80
2023-02-05T03:04:09.637Z,28.60
2023-02-05T03:06:39.365Z,29.05
2023-02-05T03:09:12.460Z,29.00
2023-02-05T03:11:40.857Z,29.98
2023-02-05T03:14:10.447Z,29.27
2023-02-05T03:16:38.613Z,29.20
2023-02-05T03:19:07.722Z,29.30
2023-02-05T03:21:40.071Z,28.35
2023-02-05T03:24:09.515Z,29.10
2023-02-05T03:26:39.081Z,28.48
2023-02-05T03:29:11.746Z,27.42
2023-02-05T03:31:50.782Z,29.08
2023-02-05T03:34:32.841Z,26.60
2023-02-05T03:37:09.417Z,26.45
2023-02-05T03:39:47.721Z,26.08
2023-02-05T03:42:27.253Z,25.73
2023-02-05T03:45:29.564Z,24.70
2023-02-05T03:48:23.527Z,24.70
2023-02-05T03:50:55.820Z,25.08
2023-02-05T03:53:32.656Z,24.40
2023-02-05T03:56:05.204Z,25.13
2023-02-05T03:58:37.524Z,25.40
2023-02-05T04:01:08.742Z,24.27
2023-02-05T04:03:37.135Z,23.73
2023-02-05T04:06:06.412Z,23.48
2023-02-05T04:08:34.572Z,23.17
2023-02-05T04:11:02.701Z,23.85
2023-02-05T04:13:31.553Z,23.40
2023-02-05T04:15:59.680Z,23.10
2023-02-05T04:18:30.388Z,23.20
2023-02-05T04:20:59.985Z,23.00
2023-02-05T04:23:28.133Z,22.08
2023-02-05T04:25:57.473Z,21.07
2023-02-05T04:28:25.500Z,21.42
2023-02-05T04:30:53.829Z,21.42
2023-02-05T04:33:24.341Z,20.23
2023-02-05T04:35:53.778Z,20.20
2023-02-05T04:38:21.936Z,20.07
2023-02-05T04:40:49.964Z,20.33
2023-02-05T04:43:18.306Z,20.80
2023-02-05T04:45:46.410Z,19.63
2023-02-05T04:48:14.739Z,19.92
2023-02-05T04:50:42.862Z,20.77
2023-02-05T04:53:12.368Z,20.07
2023-02-05T04:55:40.405Z,20.87
2023-02-05T04:58:08.452Z,20.93
2023-02-05T05:00:36.493Z,20.93
2023-02-05T05:03:04.777Z,22.63
2023-02-05T05:05:33.179Z,25.47
2023-02-05T05:08:01.939Z,21.10
2023-02-05T05:10:31.652Z,24.30
2023-02-05T05:12:59.602Z,22.80
2023-02-05T05:15:27.640Z,22.43
2023-02-05T05:17:55.920Z,23.03
2023-02-05T05:20:23.952Z,25.87
2023-02-05T05:22:52.009Z,26.77
2023-02-05T05:25:20.149Z,22.37
2023-02-05T05:27:50.093Z,22.13
2023-02-05T05:30:18.272Z,23.37
2023-02-05T05:32:46.527Z,22.60
2023-02-05T05:35:14.582Z,22.30
2023-02-05T05:37:43.744Z,21.57
2023-02-05T05:40:32.285Z,22.60
2023-02-05T05:43:24.688Z,23.20
2023-02-05T05:45:53.945Z,23.87
2023-02-05T05:48:22.009Z,23.33
2023-02-05T05:50:50.008Z,23.40
2023-02-05T05:53:18.045Z,23.57
2023-02-05T05:55:46.494Z,24.63
2023-02-05T05:58:16.257Z,25.13
2023-02-05T06:00:44.600Z,24.63
2023-02-05T06:03:13.601Z,24.20
2023-02-05T06:05:41.575Z,24.60
2023-02-05T06:08:09.724Z,28.40
2023-02-05T06:10:37.680Z,24.73
2023-02-05T06:13:05.706Z,24.83
2023-02-05T06:15:35.548Z,24.50
2023-02-05T06:18:03.656Z,24.57
2023-02-05T06:20:31.833Z,25.53
2023-02-05T06:22:59.969Z,25.27
2023-02-05T06:25:27.999Z,25.83
2023-02-05T06:27:56.178Z,26.67
2023-02-05T06:30:24.290Z,26.23
2023-02-05T06:32:54.183Z,27.73
2023-02-05T06:35:22.379Z,25.83
2023-02-05T06:37:50.441Z,26.03
2023-02-05T06:40:22.249Z,28.50
2023-02-05T06:42:50.374Z,25.73
2023-02-05T06:45:18.373Z,26.27
2023-02-05T06:47:46.636Z,25.70
2023-02-05T06:50:16.165Z,26.60
2023-02-05T06:52:44.284Z,25.67
2023-02-05T06:55:12.181Z,26.13
2023-02-05T06:57:40.300Z,26.27
2023-02-05T07:00:09.636Z,25.67
2023-02-05T07:02:37.595Z,26.90
2023-02-05T07:05:05.893Z,27.07
2023-02-05T07:07:35.843Z,26.30
2023-02-05T07:10:04.307Z,26.60
2023-02-05T07:12:33.001Z,29.20
2023-02-05T07:15:01.023Z,27.53
2023-02-05T07:17:29.785Z,27.03
2023-02-05T07:19:58.785Z,26.60
2023-02-05T07:22:27.011Z,26.57
2023-02-05T07:24:56.590Z,33.17
2023-02-05T07:27:24.586Z,25.77
2023-02-05T07:29:52.717Z,27.00
2023-02-05T07:32:20.718Z,27.00
2023-02-05T07:34:48.744Z,29.67
2023-02-05T07:37:16.876Z,25.43
2023-02-05T07:39:44.852Z,29.87
2023-02-05T07:42:14.286Z,25.60
2023-02-05T07:44:42.301Z,27.03
2023-02-05T07:47:10.340Z,34.63
2023-02-05T07:49:38.521Z,26.07
2023-02-05T07:52:07.656Z,31.67
2023-02-05T07:54:35.819Z,32.77
2023-02-05T07:57:06.625Z,34.77
2023-02-05T07:59:36.429Z,30.43
2023-02-05T08:02:04.512Z,26.53
2023-02-05T08:04:33.394Z,27.73
2023-02-05T08:07:01.917Z,26.13
2023-02-05T08:09:29.953Z,31.17
2023-02-05T08:11:58.029Z,27.13
2023-02-05T08:14:26.163Z,31.70
2023-02-05T08:16:55.549Z,27.40
2023-02-05T08:19:24.069Z,27.23
2023-02-05T08:21:52.543Z,31.57
2023-02-05T08:24:20.521Z,30.17
2023-02-05T08:26:48.707Z,27.77
2023-02-05T08:29:16.900Z,30.03
2023-02-05T08:31:44.981Z,29.77
2023-02-05T08:34:14.582Z,27.30
2023-02-05T08:36:42.478Z,30.07
2023-02-05T08:39:10.583Z,30.40
2023-02-05T08:41:41.975Z,29.27
2023-02-05T08:44:17.559Z,39.90
2023-02-05T08:46:50.041Z,28.40
2023-02-05T08:49:19.860Z,26.23
2023-02-05T08:51:48.538Z,32.20
2023-02-05T08:54:16.656Z,25.13
2023-02-05T08:56:46.603Z,29.03
2023-02-05T08:59:15.175Z,27.58
2023-02-05T09:01:44.131Z,32.47
2023-02-05T09:04:14.647Z,29.83
2023-02-05T09:06:45.020Z,27.50
2023-02-05T09:09:13.929Z,33.70
2023-02-05T09:11:42.123Z,28.17
2023-02-05T09:14:10.966Z,31.30
2023-02-05T09:16:40.449Z,31.23
2023-02-05T09:19:09.257Z,28.93
2023-02-05T09:21:37.293Z,34.37
2023-02-05T09:24:07.961Z,30.37
2023-02-05T09:26:38.967Z,29.50
2023-02-05T09:29:07.160Z,35.73
2023-02-05T09:31:35.447Z,28.45
2023-02-05T09:34:04.801Z,39.23
2023-02-05T09:36:33.288Z,39.13
2023-02-05T09:39:15.015Z,31.55
2023-02-05T09:41:57.205Z,28.60
2023-02-05T09:44:40.856Z,30.80
2023-02-05T09:47:16.877Z,28.53
2023-02-05T09:52:30.574Z,35.83
2023-02-05T09:55:04.296Z,31.02
2023-02-05T09:57:37.208Z,31.02
2023-02-05T10:00:13.212Z,37.72
2023-02-05T10:02:50.263Z,28.43
2023-02-05T10:05:22.435Z,32.35
2023-02-05T10:07:57.722Z,35.20
2023-02-05T10:10:28.430Z,39.67
2023-02-05T10:13:27.456Z,29.67
2023-02-05T10:16:23.336Z,29.67
2023-02-05T10:19:01.766Z,39.25
2023-02-05T10:21:43.087Z,38.30
2023-02-05T10:24:46.940Z,29.10
2023-02-05T10:27:22.871Z,37.83
2023-02-05T10:30:04.199Z,36.08
2023-02-05T10:32:46.973Z,33.30
2023-02-05T10:35:25.754Z,30.63
2023-02-05T10:37:56.968Z,31.77
2023-02-05T10:40:29.715Z,29.50
2023-02-05T10:43:05.629Z,29.85
2023-02-05T10:45:35.548Z,44.47
2023-02-05T10:48:36.397Z,34.55
2023-02-05T10:51:07.163Z,39.75
2023-02-05T10:53:37.235Z,38.40
2023-02-05T10:56:06.924Z,32.28
2023-02-05T10:58:47.078Z,37.33
2023-02-05T11:01:19.772Z,29.80
2023-02-05T11:03:57.172Z,37.70
2023-02-05T11:06:27.060Z,30.35
2023-02-05T11:08:55.797Z,28.67
2023-02-05T11:14:25.113Z,32.63
2023-02-05T11:16:56.924Z,30.35
2023-02-05T11:19:27.999Z,34.78
2023-02-05T11:21:58.698Z,35.63
2023-02-05T11:24:30.949Z,30.25
2023-02-05T11:27:28.270Z,29.42
2023-02-05T11:30:00.185Z,33.58
2023-02-05T11:32:37.192Z,32.28
2023-02-05T11:35:20.157Z,31.73
2023-02-05T11:37:51.764Z,30.95
2023-02-05T11:40:25.910Z,31.75
2023-02-05T11:43:05.748Z,35.50
2023-02-05T11:45:37.789Z,34.72
2023-02-05T11:48:23.265Z,43.65
2023-02-05T11:50:51.790Z,31.35
2023-02-05T11:53:22.244Z,30.98
2023-02-05T11:55:55.895Z,36.70
2023-02-05T11:58:36.243Z,32.28
2023-02-05T12:01:07.963Z,29.85
2023-02-05T12:03:38.747Z,30.77
2023-02-05T12:06:16.747Z,31.33
2023-02-05T12:08:52.024Z,31.65
2023-02-05T12:11:56.257Z,32.10
2023-02-05T12:14:32.582Z,30.33
2023-02-05T12:17:16.631Z,28.42
2023-02-05T12:19:53.362Z,28.42
2023-02-05T12:22:37.672Z,28.30
2023-02-05T12:25:16.930Z,27.50
2023-02-05T12:27:59.107Z,36.90
2023-02-05T12:30:44.254Z,36.22
2023-02-05T12:33:31.615Z,29.67
2023-02-05T12:36:12.616Z,27.50
2023-02-05T12:38:54.006Z,32.35
2023-02-05T12:41:46.762Z,29.10
2023-02-05T12:44:29.818Z,31.98
2023-02-05T12:47:11.815Z,28.08
2023-02-05T12:49:57.873Z,28.65
2023-02-05T12:52:43.276Z,36.40
2023-02-05T12:55:25.480Z,27.38
2023-02-05T12:57:58.714Z,29.92
2023-02-05T13:00:34.341Z,32.72
2023-02-05T13:03:08.747Z,32.03
2023-02-05T13:05:41.458Z,30.00
2023-02-05T13:08:17.243Z,25.80
2023-02-05T13:10:51.698Z,27.92
2023-02-05T13:13:26.449Z,27.10
2023-02-05T13:16:03.883Z,35.00
2023-02-05T13:18:39.112Z,25.75
2023-02-05T13:21:29.866Z,33.30
2023-02-05T13:24:23.896Z,28.00
2023-02-05T13:27:12.772Z,25.70
2023-02-05T13:29:51.523Z,27.27
2023-02-05T13:32:25.368Z,25.67
2023-02-05T13:34:56.683Z,28.17
2023-02-05T13:37:38.412Z,27.77
2023-02-05T13:40:29.550Z,27.65
2023-02-05T13:43:32.101Z,32.83
2023-02-05T13:46:30.609Z,29.15
2023-02-05T13:49:36.926Z,29.20
2023-02-05T13:52:29.987Z,35.00
2023-02-05T13:55:28.305Z,28.17
2023-02-05T13:58:24.131Z,29.35
2023-02-05T14:00:57.219Z,27.95
2023-02-05T14:03:36.078Z,28.58
2023-02-05T14:06:21.845Z,30.83
2023-02-05T14:08:52.253Z,28.05
2023-02-05T14:11:26.895Z,27.17
2023-02-05T14:14:27.345Z,35.47
2023-02-05T14:36:48.320Z,34.33
2023-02-05T14:39:29.066Z,37.85
2023-02-05T14:41:59.495Z,29.92
2023-02-05T14:44:33.416Z,29.88
2023-02-05T14:47:10.704Z,42.97
2023-02-05T14:49:43.175Z,31.38
2023-02-05T14:52:28.284Z,32.33
2023-02-05T14:55:23.308Z,30.33
2023-02-05T14:57:54.710Z,28.75
2023-02-05T15:00:32.824Z,30.33
2023-02-05T15:03:22.955Z,31.75
2023-02-05T15:06:04.411Z,33.60
2023-02-05T15:08:48.623Z,28.80
2023-02-05T15:11:28.408Z,30.48
2023-02-05T15:14:37.925Z,34.40
2023-02-05T15:17:51.877Z,29.98
2023-02-05T15:20:27.471Z,33.78
2023-02-05T15:23:02.392Z,34.80
2023-02-05T15:25:38.274Z,30.17
2023-02-05T15:28:21.809Z,30.73
2023-02-05T15:30:55.653Z,38.05
2023-02-05T15:33:32.754Z,30.02
2023-02-05T15:36:03.662Z,29.90
2023-02-05T15:38:37.594Z,29.50
2023-02-05T15:41:08.467Z,34.00
2023-02-05T15:43:38.021Z,30.55
2023-02-05T15:46:09.116Z,30.45
2023-02-05T15:48:40.759Z,30.67
2023-02-05T15:51:23.151Z,41.88
2023-02-05T15:53:52.921Z,36.20
2023-02-05T15:56:26.521Z,40.13
2023-02-05T15:59:00.823Z,34.40
2023-02-05T16:01:33.279Z,34.25
2023-02-05T16:04:01.974Z,32.93
2023-02-05T16:06:31.764Z,36.58
2023-02-05T16:08:59.690Z,37.63
2023-02-05T16:11:30.353Z,33.15
2023-02-05T16:14:14.620Z,31.00
2023-02-05T16:17:16.989Z,37.07
2023-02-05T16:19:54.411Z,34.92
2023-02-05T16:25:44.698Z,34.43
2023-02-05T16:28:18.466Z,42.05
2023-02-05T16:30:51.172Z,32.37
2023-02-05T16:33:32.628Z,35.23
2023-02-05T16:36:07.703Z,31.87
2023-02-05T16:38:42.270Z,35.57
2023-02-05T16:41:27.162Z,32.80
2023-02-05T16:44:40.536Z,32.17
2023-02-05T16:47:23.399Z,34.40
2023-02-05T16:50:01.150Z,30.63
2023-02-05T18:45:50.778Z,37.43
2023-02-05T18:48:20.110Z,35.40
2023-02-05T18:50:48.160Z,41.67
2023-02-05T18:53:16.457Z,36.90
2023-02-05T18:55:44.620Z,39.10
2023-02-05T18:58:12.719Z,35.97
2023-02-05T19:00:40.832Z,37.30
2023-02-05T19:03:09.395Z,33.40
2023-02-05T19:05:38.873Z,29.23
2023-02-05T19:08:07.383Z,30.07
2023-02-05T19:10:37.297Z,36.20
2023-02-05T19:13:05.697Z,30.80
2023-02-05T19:15:34.886Z,38.03
2023-02-05T19:18:02.999Z,35.27
2023-02-05T19:20:31.277Z,35.07
2023-02-05T19:23:01.018Z,39.43
2023-02-05T19:25:31.073Z,37.77
2023-02-05T19:27:59.263Z,32.80
2023-02-05T19:30:27.380Z,41.27
2023-02-05T19:32:55.493Z,34.77
2023-02-05T19:35:23.431Z,35.67
2023-02-05T19:37:51.344Z,35.07
2023-02-05T19:40:21.129Z,39.50
2023-02-05T19:42:49.363Z,47.83
2023-02-05T19:45:17.634Z,34.83
2023-02-05T19:47:45.627Z,38.97
2023-02-05T19:50:13.632Z,39.80
2023-02-05T19:52:41.711Z,43.03
2023-02-05T19:55:09.948Z,41.70
2023-02-05T19:57:40.509Z,38.57
2023-02-05T20:00:10.428Z,39.90
2023-02-05T20:02:39.026Z,33.77
2023-02-05T20:05:07.731Z,42.20
2023-02-05T20:07:38.462Z,30.60
2023-02-05T20:10:07.233Z,38.33
2023-02-05T20:12:35.541Z,29.73
2023-02-05T20:15:05.503Z,41.00
2023-02-05T20:17:33.628Z,41.60
2023-02-05T20:20:12.688Z,31.53
2023-02-05T20:22:49.755Z,36.80
2023-02-05T20:25:18.808Z,36.60
2023-02-05T20:27:47.220Z,35.87
2023-02-05T20:30:34.610Z,31.63
2023-02-05T20:33:02.891Z,32.00
2023-02-05T20:35:36.081Z,37.43
2023-02-05T20:38:04.327Z,33.07
2023-02-05T20:40:32.867Z,40.40
2023-02-05T20:43:01.512Z,34.30
2023-02-05T20:45:32.896Z,35.53
2023-02-05T20:48:01.824Z,32.17
2023-02-05T20:50:30.114Z,35.87
2023-02-05T20:52:58.526Z,31.77
2023-02-05T20:55:27.995Z,39.73
2023-02-05T20:57:55.995Z,34.47
2023-02-05T21:00:26.453Z,32.47
2023-02-05T21:02:56.013Z,37.27
2023-02-05T21:05:27.051Z,33.20
2023-02-05T21:07:55.152Z,32.13
2023-02-05T21:10:23.183Z,36.00
2023-02-05T21:12:51.267Z,35.60
2023-02-05T21:15:19.514Z,43.03
2023-02-05T21:17:47.538Z,37.50
2023-02-05T21:20:17.862Z,31.63
2023-02-05T21:22:46.268Z,36.23
2023-02-05T21:25:14.387Z,37.30
2023-02-05T21:27:44.557Z,32.83
2023-02-05T21:30:15.921Z,36.47
2023-02-05T21:32:43.977Z,33.00
2023-02-05T21:35:12.156Z,36.90
2023-02-05T21:37:41.508Z,35.10
2023-02-05T21:40:10.845Z,33.33
2023-02-05T21:42:38.881Z,41.93
2023-02-05T21:45:07.924Z,36.77
2023-02-05T21:47:35.914Z,32.27
2023-02-05T21:50:04.610Z,33.60
2023-02-05T21:52:35.714Z,34.30
2023-02-05T21:55:05.300Z,37.63
2023-02-05T21:57:33.739Z,36.30
2023-02-05T22:00:03.245Z,32.17
2023-02-05T22:02:31.882Z,37.10
2023-02-05T22:04:59.931Z,38.20
2023-02-05T22:07:27.906Z,36.93
2023-02-05T22:09:57.138Z,36.73
2023-02-05T22:12:27.159Z,37.13
2023-02-05T22:14:55.216Z,41.13
2023-02-05T22:17:24.783Z,41.70
2023-02-05T22:19:52.699Z,32.00
2023-02-05T22:22:20.695Z,31.20
2023-02-05T22:24:48.963Z,35.67
2023-02-05T22:27:17.158Z,39.17
2023-02-05T22:29:47.061Z,32.13
2023-02-05T22:32:15.027Z,38.27
2023-02-05T22:34:43.704Z,35.70
2023-02-05T22:37:11.884Z,38.10
2023-02-05T22:39:39.869Z,32.63
2023-02-05T22:42:07.919Z,35.37
2023-02-05T22:44:36.040Z,36.60
2023-02-05T22:47:05.527Z,35.73
2023-02-05T22:49:33.587Z,37.63
2023-02-05T22:52:02.573Z,39.53
2023-02-05T22:54:30.801Z,34.27
2023-02-05T22:56:58.863Z,33.83
2023-02-05T22:59:27.013Z,36.27
2023-02-05T23:01:54.959Z,33.67
2023-02-05T23:04:24.397Z,36.73
2023-02-05T23:06:52.412Z,38.47
2023-02-05T23:09:20.632Z,34.23
2023-02-05T23:11:50.278Z,31.93
2023-02-05T23:14:19.249Z,33.97
2023-02-05T23:16:51.383Z,31.10
2023-02-05T23:19:22.447Z,37.07
2023-02-05T23:21:54.258Z,33.20
2023-02-05T23:24:22.294Z,35.90
2023-02-05T23:26:53.410Z,31.83
2023-02-05T23:29:22.068Z,37.07
2023-02-05T23:31:50.152Z,36.37
2023-02-05T23:34:18.265Z,34.03
2023-02-05T23:36:46.468Z,33.27
2023-02-05T23:39:15.984Z,32.47
2023-02-05T23:41:43.867Z,30.83
2023-02-05T23:44:14.291Z,33.53
2023-02-05T23:46:43.852Z,31.13
2023-02-05T23:49:12.498Z,42.57
2023-02-05T23:51:40.969Z,31.37
2023-02-05T23:54:10.349Z,35.93
2023-02-05T23:56:40.192Z,31.87
2023-02-05T23:59:09.120Z,31.57
